Time;durP1;ratioP1;P1;durP2;ratioP2;P2;SDS_P1;SDS_P2;PMS_P1;PMS_P2;Temp;Humidity;BMP_temperature;BMP_pressure;BME280_temperature;BME280_humidity;BME280_pressure;Samples;Min_cycle;Max_cycle;Signal;HPM_P1;HPM_P2
2020/11/07 00:01:16;;;;;;;2.63;2.38;;;;;;;19.84;55.20;101616.81;;;;-51
2020/11/07 00:04:16;;;;;;;3.00;2.71;;;;;;;19.82;55.26;101615.70;;;;-52
2020/11/07 00:07:16;;;;;;;2.73;2.53;;;;;;;19.81;55.19;101613.71;;;;-55
2020/11/07 00:10:16;;;;;;;2.46;2.26;;;;;;;19.80;55.25;101613.86;;;;-55
2020/11/07 00:13:16;;;;;;;2.52;2.32;;;;;;;19.79;55.14;101611.95;;;;-56
2020/11/07 00:16:16;;;;;;;3.09;2.51;;;;;;;19.77;55.23;101605.31;;;;-56
2020/11/07 00:19:16;;;;;;;2.58;2.38;;;;;;;19.76;55.35;101608.31;;;;-56
2020/11/07 00:22:16;;;;;;;2.56;2.35;;;;;;;19.74;55.25;101608.77;;;;-51
2020/11/07 00:25:16;;;;;;;2.73;2.53;;;;;;;19.73;55.26;101604.16;;;;-53
2020/11/07 00:28:16;;;;;;;2.71;2.50;;;;;;;19.71;55.32;101600.38;;;;-51
2020/11/07 00:31:16;;;;;;;2.69;2.49;;;;;;;19.71;55.30;101605.98;;;;-51
2020/11/07 00:34:16;;;;;;;2.68;2.48;;;;;;;19.69;55.38;101609.73;;;;-51
2020/11/07 00:37:16;;;;;;;2.84;2.64;;;;;;;19.68;55.65;101607.77;;;;-52
2020/11/07 00:40:17;;;;;;;2.69;2.49;;;;;;;19.67;55.35;101606.10;;;;-52
2020/11/07 00:43:16;;;;;;;3.13;2.59;;;;;;;19.66;55.31;101599.42;;;;-51
2020/11/07 00:46:16;;;;;;;2.79;2.59;;;;;;;19.64;55.32;101594.41;;;;-51
2020/11/07 00:49:16;;;;;;;2.89;2.69;;;;;;;19.62;55.33;101595.09;;;;-51
2020/11/07 00:52:16;;;;;;;2.63;2.43;;;;;;;19.61;55.43;101600.05;;;;-51
2020/11/07 00:55:16;;;;;;;2.79;2.59;;;;;;;19.60;55.56;101596.75;;;;-51
2020/11/07 00:58:16;;;;;;;2.70;2.50;;;;;;;19.58;55.39;101595.66;;;;-51
2020/11/07 01:01:16;;;;;;;2.87;2.67;;;;;;;19.57;55.42;101596.86;;;;-52
2020/11/07 01:04:16;;;;;;;2.68;2.48;;;;;;;19.56;55.75;101597.63;;;;-51
2020/11/07 01:07:16;;;;;;;3.05;2.77;;;;;;;19.55;55.52;101592.06;;;;-60
2020/11/07 01:10:17;;;;;;;2.85;2.65;;;;;;;19.53;55.57;101593.59;;;;-60
2020/11/07 01:13:16;;;;;;;2.73;2.53;;;;;;;19.53;55.76;101590.50;;;;-59
2020/11/07 01:16:16;;;;;;;2.73;2.53;;;;;;;19.52;55.56;101587.29;;;;-59
2020/11/07 01:19:16;;;;;;;2.80;2.60;;;;;;;19.51;55.54;101587.20;;;;-56
2020/11/07 01:22:16;;;;;;;2.82;2.62;;;;;;;19.50;55.69;101592.84;;;;-56
2020/11/07 01:25:16;;;;;;;2.87;2.67;;;;;;;19.48;55.82;101593.37;;;;-56
2020/11/07 01:28:16;;;;;;;3.13;2.56;;;;;;;19.48;55.84;101588.57;;;;-56
2020/11/07 01:31:16;;;;;;;2.91;2.71;;;;;;;19.46;55.89;101587.34;;;;-56
2020/11/07 01:34:16;;;;;;;2.78;2.58;;;;;;;19.46;55.74;101592.59;;;;-56
2020/11/07 01:37:16;;;;;;;2.99;2.76;;;;;;;19.44;55.92;101590.55;;;;-56
2020/11/07 01:40:16;;;;;;;2.59;2.39;;;;;;;19.44;55.83;101589.78;;;;-56
2020/11/07 01:43:16;;;;;;;2.70;2.50;;;;;;;19.44;55.59;101583.75;;;;-56
2020/11/07 01:46:16;;;;;;;2.84;2.64;;;;;;;19.43;55.73;101582.61;;;;-58
2020/11/07 01:49:16;;;;;;;2.60;2.40;;;;;;;19.42;55.71;101581.52;;;;-60
2020/11/07 01:52:16;;;;;;;2.98;2.78;;;;;;;19.42;55.73;101581.10;;;;-51
2020/11/07 01:55:16;;;;;;;2.69;2.49;;;;;;;19.41;55.54;101581.83;;;;-51
2020/11/07 01:58:16;;;;;;;2.78;2.57;;;;;;;19.40;55.80;101575.28;;;;-52
2020/11/07 02:01:16;;;;;;;2.89;2.69;;;;;;;19.39;55.78;101574.62;;;;-51
2020/11/07 02:04:16;;;;;;;2.88;2.68;;;;;;;19.38;55.69;101574.62;;;;-57
2020/11/07 02:07:16;;;;;;;3.10;2.83;;;;;;;19.37;55.56;101571.32;;;;-60
2020/11/07 02:10:16;;;;;;;2.71;2.50;;;;;;;19.36;55.69;101564.70;;;;-55
2020/11/07 02:13:16;;;;;;;2.81;2.61;;;;;;;19.36;55.67;101560.96;;;;-51
2020/11/07 02:16:16;;;;;;;2.71;2.51;;;;;;;19.34;55.73;101553.52;;;;-51
2020/11/07 02:19:16;;;;;;;2.89;2.68;;;;;;;19.33;55.75;101547.81;;;;-56
2020/11/07 02:22:16;;;;;;;3.03;2.62;;;;;;;19.33;55.86;101555.37;;;;-56
2020/11/07 02:25:16;;;;;;;2.85;2.65;;;;;;;19.32;55.76;101553.66;;;;-56
2020/11/07 02:28:16;;;;;;;2.80;2.60;;;;;;;19.31;55.86;101548.81;;;;-54
2020/11/07 02:31:16;;;;;;;2.99;2.79;;;;;;;19.29;55.63;101547.88;;;;-56
2020/11/07 02:34:16;;;;;;;2.76;2.56;;;;;;;19.29;55.78;101553.89;;;;-56
2020/11/07 02:37:16;;;;;;;2.71;2.51;;;;;;;19.28;55.84;101556.97;;;;-55
2020/11/07 02:40:16;;;;;;;2.66;2.46;;;;;;;19.27;55.93;101553.36;;;;-55
2020/11/07 02:43:16;;;;;;;2.73;2.53;;;;;;;19.27;56.00;101549.78;;;;-56
2020/11/07 02:46:16;;;;;;;3.00;2.79;;;;;;;19.26;55.95;101551.40;;;;-54
2020/11/07 02:49:16;;;;;;;3.01;2.81;;;;;;;19.25;55.87;101543.80;;;;-55
2020/11/07 02:52:16;;;;;;;2.81;2.61;;;;;;;19.25;55.96;101540.62;;;;-57
2020/11/07 02:55:16;;;;;;;2.79;2.59;;;;;;;19.24;55.98;101541.43;;;;-60
2020/11/07 02:58:16;;;;;;;2.78;2.58;;;;;;;19.24;55.90;101541.99;;;;-59
2020/11/07 03:01:16;;;;;;;2.82;2.62;;;;;;;19.23;55.92;101546.34;;;;-55
2020/11/07 03:04:16;;;;;;;3.06;2.79;;;;;;;19.22;56.03;101549.02;;;;-51
2020/11/07 03:07:16;;;;;;;2.80;2.60;;;;;;;19.22;56.04;101552.34;;;;-51
2020/11/07 03:10:16;;;;;;;2.89;2.69;;;;;;;19.21;56.03;101549.38;;;;-51
2020/11/07 03:13:16;;;;;;;2.87;2.67;;;;;;;19.20;56.05;101547.09;;;;-56
2020/11/07 03:16:16;;;;;;;2.84;2.64;;;;;;;19.20;56.04;101552.30;;;;-54
2020/11/07 03:19:16;;;;;;;2.71;2.51;;;;;;;19.20;55.96;101551.80;;;;-55
2020/11/07 03:22:16;;;;;;;2.77;2.57;;;;;;;19.19;56.01;101555.42;;;;-54
2020/11/07 03:25:16;;;;;;;2.85;2.65;;;;;;;19.18;56.00;101553.95;;;;-54
2020/11/07 03:28:16;;;;;;;2.88;2.63;;;;;;;19.17;56.01;101557.33;;;;-54
2020/11/07 03:31:16;;;;;;;2.76;2.56;;;;;;;19.17;55.99;101563.26;;;;-54
2020/11/07 03:34:16;;;;;;;2.88;2.68;;;;;;;19.16;56.02;101557.31;;;;-54
2020/11/07 03:37:16;;;;;;;2.89;2.69;;;;;;;19.15;56.01;101558.37;;;;-54
2020/11/07 03:40:16;;;;;;;2.79;2.59;;;;;;;19.14;56.02;101563.52;;;;-52
2020/11/07 03:43:16;;;;;;;2.91;2.71;;;;;;;19.14;56.11;101566.77;;;;-51
2020/11/07 03:46:16;;;;;;;2.79;2.59;;;;;;;19.13;56.01;101562.54;;;;-51
2020/11/07 03:49:16;;;;;;;2.75;2.55;;;;;;;19.13;55.99;101560.80;;;;-57
2020/11/07 03:52:16;;;;;;;2.97;2.73;;;;;;;19.11;56.01;101564.23;;;;-59
2020/11/07 03:55:16;;;;;;;2.87;2.67;;;;;;;19.11;56.00;101565.78;;;;-51
2020/11/07 03:58:16;;;;;;;2.71;2.51;;;;;;;19.10;56.06;101561.95;;;;-51
2020/11/07 04:01:16;;;;;;;2.87;2.67;;;;;;;19.10;56.02;101566.75;;;;-51
2020/11/07 04:04:18;;;;;;;2.83;2.61;;;;;;;19.09;55.98;101568.41;;;;-51
2020/11/07 04:07:16;;;;;;;2.70;2.50;;;;;;;19.09;56.02;101564.34;;;;-52
2020/11/07 04:10:16;;;;;;;2.70;2.50;;;;;;;19.07;56.04;101565.63;;;;-54
2020/11/07 04:13:16;;;;;;;3.23;2.81;;;;;;;19.06;56.04;101566.31;;;;-55
2020/11/07 04:16:16;;;;;;;2.89;2.61;;;;;;;19.06;56.00;101562.25;;;;-56
2020/11/07 04:19:16;;;;;;;2.61;2.41;;;;;;;19.05;55.96;101561.11;;;;-54
2020/11/07 04:22:16;;;;;;;2.92;2.71;;;;;;;19.04;56.04;101553.84;;;;-51
2020/11/07 04:25:16;;;;;;;2.83;2.63;;;;;;;19.04;55.96;101557.98;;;;-51
2020/11/07 04:28:16;;;;;;;2.60;2.40;;;;;;;19.03;56.04;101558.78;;;;-51
2020/11/07 04:31:16;;;;;;;2.82;2.62;;;;;;;19.03;56.03;101560.30;;;;-54
2020/11/07 04:34:16;;;;;;;2.93;2.73;;;;;;;19.02;56.00;101556.22;;;;-54
2020/11/07 04:37:16;;;;;;;2.85;2.59;;;;;;;19.02;56.05;101559.80;;;;-54
2020/11/07 04:40:16;;;;;;;2.97;2.76;;;;;;;19.01;56.02;101556.13;;;;-54
2020/11/07 04:43:16;;;;;;;3.32;2.89;;;;;;;19.00;56.00;101556.49;;;;-54
2020/11/07 04:46:16;;;;;;;2.87;2.67;;;;;;;18.99;56.01;101554.78;;;;-54
2020/11/07 04:49:16;;;;;;;3.09;2.84;;;;;;;18.98;56.01;101554.17;;;;-54
2020/11/07 04:52:16;;;;;;;2.83;2.63;;;;;;;18.98;55.97;101548.31;;;;-54
2020/11/07 04:55:16;;;;;;;2.81;2.61;;;;;;;18.99;56.00;101551.84;;;;-54
2020/11/07 04:58:16;;;;;;;2.89;2.69;;;;;;;18.96;55.96;101546.32;;;;-54
2020/11/07 05:01:16;;;;;;;2.77;2.57;;;;;;;18.97;56.00;101539.70;;;;-51
2020/11/07 05:04:16;;;;;;;2.97;2.77;;;;;;;18.96;56.01;101541.36;;;;-51
2020/11/07 05:07:16;;;;;;;2.73;2.53;;;;;;;18.96;56.06;101542.73;;;;-52
2020/11/07 05:10:16;;;;;;;2.86;2.66;;;;;;;18.95;56.05;101544.52;;;;-58
2020/11/07 05:13:16;;;;;;;2.76;2.56;;;;;;;18.96;55.99;101543.95;;;;-54
2020/11/07 05:16:16;;;;;;;2.75;2.55;;;;;;;18.95;55.99;101542.56;;;;-51
2020/11/07 05:19:16;;;;;;;2.95;2.70;;;;;;;18.94;56.00;101539.77;;;;-51
2020/11/07 05:22:16;;;;;;;2.88;2.67;;;;;;;18.94;55.99;101543.58;;;;-51
2020/11/07 05:25:16;;;;;;;2.80;2.60;;;;;;;18.94;56.01;101538.86;;;;-54
2020/11/07 05:28:16;;;;;;;3.05;2.80;;;;;;;18.92;56.02;101528.02;;;;-54
2020/11/07 05:31:16;;;;;;;2.87;2.67;;;;;;;18.93;56.01;101530.89;;;;-55
2020/11/07 05:34:16;;;;;;;2.71;2.51;;;;;;;18.92;56.02;101526.55;;;;-54
2020/11/07 05:37:16;;;;;;;2.81;2.61;;;;;;;18.91;56.03;101525.08;;;;-54
2020/11/07 05:40:16;;;;;;;2.84;2.64;;;;;;;18.91;56.03;101523.95;;;;-54
2020/11/07 05:43:16;;;;;;;3.11;2.87;;;;;;;18.91;55.98;101520.78;;;;-54
2020/11/07 05:46:16;;;;;;;3.06;2.85;;;;;;;18.90;56.03;101517.73;;;;-54
2020/11/07 05:49:16;;;;;;;2.93;2.73;;;;;;;18.90;56.01;101520.89;;;;-59
2020/11/07 05:52:16;;;;;;;2.87;2.67;;;;;;;18.89;56.01;101522.51;;;;-58
2020/11/07 05:55:16;;;;;;;2.81;2.61;;;;;;;18.89;56.02;101513.66;;;;-53
2020/11/07 05:58:16;;;;;;;2.91;2.71;;;;;;;18.90;56.02;101507.57;;;;-52
2020/11/07 06:01:16;;;;;;;3.33;3.00;;;;;;;18.89;55.96;101506.42;;;;-51
2020/11/07 06:04:16;;;;;;;3.19;2.89;;;;;;;18.88;55.95;101506.78;;;;-51
2020/11/07 06:07:16;;;;;;;2.84;2.64;;;;;;;18.87;55.92;101506.21;;;;-51
2020/11/07 06:10:16;;;;;;;2.93;2.70;;;;;;;18.86;55.96;101511.94;;;;-52
2020/11/07 06:13:16;;;;;;;3.17;2.85;;;;;;;18.86;56.04;101520.22;;;;-51
2020/11/07 06:16:16;;;;;;;3.18;2.88;;;;;;;18.86;55.97;101518.92;;;;-51
2020/11/07 06:19:16;;;;;;;3.01;2.79;;;;;;;18.87;55.60;101518.31;;;;-51
2020/11/07 06:22:16;;;;;;;2.97;2.77;;;;;;;18.88;55.77;101519.95;;;;-51
2020/11/07 06:25:16;;;;;;;3.55;2.76;;;;;;;18.90;55.62;101520.48;;;;-51
2020/11/07 06:28:16;;;;;;;2.69;2.49;;;;;;;18.92;55.54;101520.46;;;;-51
2020/11/07 06:31:16;;;;;;;3.14;2.85;;;;;;;18.94;55.93;101518.31;;;;-51
2020/11/07 06:34:16;;;;;;;2.66;2.46;;;;;;;18.96;56.16;101520.89;;;;-54
2020/11/07 06:37:16;;;;;;;2.99;2.79;;;;;;;19.00;56.19;101519.93;;;;-56
2020/11/07 06:40:16;;;;;;;2.77;2.57;;;;;;;19.02;56.16;101516.91;;;;-54
2020/11/07 06:43:16;;;;;;;2.77;2.57;;;;;;;19.04;56.22;101512.81;;;;-56
2020/11/07 06:46:16;;;;;;;2.97;2.73;;;;;;;19.07;56.21;101510.71;;;;-54
2020/11/07 06:49:16;;;;;;;2.80;2.60;;;;;;;19.11;56.21;101511.50;;;;-54
2020/11/07 06:52:16;;;;;;;2.78;2.58;;;;;;;19.13;56.17;101515.30;;;;-56
2020/11/07 06:55:16;;;;;;;2.77;2.57;;;;;;;19.16;56.21;101518.88;;;;-55
2020/11/07 06:58:16;;;;;;;2.73;2.53;;;;;;;19.18;56.21;101516.81;;;;-56
2020/11/07 07:01:16;;;;;;;2.86;2.57;;;;;;;19.20;56.22;101515.66;;;;-56
2020/11/07 07:04:16;;;;;;;2.72;2.52;;;;;;;19.22;56.16;101518.45;;;;-54
2020/11/07 07:07:16;;;;;;;2.82;2.62;;;;;;;19.23;56.15;101526.35;;;;-55
2020/11/07 07:10:16;;;;;;;2.77;2.57;;;;;;;19.24;56.18;101528.75;;;;-55
2020/11/07 07:13:16;;;;;;;2.72;2.52;;;;;;;19.25;56.17;101532.73;;;;-56
2020/11/07 07:16:16;;;;;;;2.87;2.67;;;;;;;19.26;56.19;101538.28;;;;-51
2020/11/07 07:19:16;;;;;;;2.67;2.47;;;;;;;19.27;56.08;101536.04;;;;-51
2020/11/07 07:22:16;;;;;;;2.86;2.66;;;;;;;19.27;56.10;101534.25;;;;-55
2020/11/07 07:25:16;;;;;;;2.83;2.61;;;;;;;19.27;56.16;101537.83;;;;-56
2020/11/07 07:28:16;;;;;;;2.98;2.78;;;;;;;19.28;56.09;101535.52;;;;-54
2020/11/07 07:31:16;;;;;;;2.79;2.59;;;;;;;19.28;56.14;101532.27;;;;-54
2020/11/07 07:34:16;;;;;;;2.63;2.43;;;;;;;19.29;56.20;101529.42;;;;-55
2020/11/07 07:37:16;;;;;;;2.89;2.69;;;;;;;19.29;56.19;101530.73;;;;-59
2020/11/07 07:40:16;;;;;;;2.88;2.68;;;;;;;19.28;56.15;101522.52;;;;-60
2020/11/07 07:43:16;;;;;;;2.88;2.68;;;;;;;19.28;56.19;101515.84;;;;-59
2020/11/07 07:46:16;;;;;;;3.22;2.63;;;;;;;19.28;56.13;101509.91;;;;-52
2020/11/07 07:49:16;;;;;;;2.86;2.65;;;;;;;19.28;56.16;101511.14;;;;-51
2020/11/07 07:52:16;;;;;;;2.94;2.67;;;;;;;19.28;56.09;101508.61;;;;-51
2020/11/07 07:55:16;;;;;;;2.70;2.47;;;;;;;19.28;56.14;101504.55;;;;-58
2020/11/07 07:58:16;;;;;;;3.07;2.87;;;;;;;19.28;56.17;101502.11;;;;-60
2020/11/07 08:01:16;;;;;;;3.08;2.83;;;;;;;19.28;56.00;101498.78;;;;-60
2020/11/07 08:04:16;;;;;;;3.05;2.77;;;;;;;19.27;56.06;101491.91;;;;-56
2020/11/07 08:07:16;;;;;;;2.88;2.60;;;;;;;19.27;56.09;101487.69;;;;-55
2020/11/07 08:10:16;;;;;;;3.03;2.80;;;;;;;19.28;56.01;101492.16;;;;-54
2020/11/07 08:13:16;;;;;;;3.07;2.77;;;;;;;19.28;56.01;101492.65;;;;-52
2020/11/07 08:16:16;;;;;;;2.97;2.77;;;;;;;19.27;56.06;101486.47;;;;-51
2020/11/07 08:19:16;;;;;;;2.90;2.70;;;;;;;19.27;56.00;101485.66;;;;-56
2020/11/07 08:22:16;;;;;;;3.14;2.85;;;;;;;19.27;56.04;101486.47;;;;-55
2020/11/07 08:25:16;;;;;;;3.11;2.83;;;;;;;19.27;56.09;101485.00;;;;-54
2020/11/07 08:28:16;;;;;;;6.60;3.01;;;;;;;19.28;55.58;101490.21;;;;-55
2020/11/07 08:31:16;;;;;;;4.75;3.22;;;;;;;19.29;56.05;101483.91;;;;-60
2020/11/07 08:34:16;;;;;;;4.12;3.64;;;;;;;19.30;55.38;101485.42;;;;-55
2020/11/07 08:37:16;;;;;;;7.67;3.79;;;;;;;19.32;55.06;101479.42;;;;-52
2020/11/07 08:40:16;;;;;;;5.33;3.89;;;;;;;19.36;54.76;101476.91;;;;-61
2020/11/07 08:43:16;;;;;;;8.09;3.76;;;;;;;19.39;54.76;101478.14;;;;-61
2020/11/07 08:46:16;;;;;;;5.03;3.41;;;;;;;19.42;54.98;101484.77;;;;-62
2020/11/07 08:49:16;;;;;;;6.03;3.41;;;;;;;19.45;55.24;101484.53;;;;-61
2020/11/07 08:52:16;;;;;;;4.20;3.37;;;;;;;19.47;55.16;101476.37;;;;-61
2020/11/07 08:55:16;;;;;;;4.32;3.38;;;;;;;19.49;55.27;101477.55;;;;-60
2020/11/07 08:58:16;;;;;;;11.10;3.25;;;;;;;19.52;55.88;101478.26;;;;-57
2020/11/07 09:01:16;;;;;;;7.09;3.54;;;;;;;19.55;56.04;101471.76;;;;-59
2020/11/07 09:04:16;;;;;;;5.01;3.40;;;;;;;19.58;56.06;101470.27;;;;-59
2020/11/07 09:07:16;;;;;;;3.77;3.29;;;;;;;19.61;56.20;101462.67;;;;-58
2020/11/07 09:10:16;;;;;;;4.75;3.25;;;;;;;19.65;56.21;101459.75;;;;-60
2020/11/07 09:13:16;;;;;;;4.35;3.39;;;;;;;19.69;56.62;101464.23;;;;-62
2020/11/07 09:16:16;;;;;;;4.13;3.29;;;;;;;19.70;56.47;101461.99;;;;-51
2020/11/07 09:19:16;;;;;;;3.56;3.26;;;;;;;19.73;56.55;101470.13;;;;-58
2020/11/07 09:22:16;;;;;;;3.88;3.48;;;;;;;19.75;56.85;101473.91;;;;-61
2020/11/07 09:25:16;;;;;;;3.45;3.14;;;;;;;19.78;56.65;101471.39;;;;-53
2020/11/07 09:28:16;;;;;;;5.79;3.43;;;;;;;19.80;56.57;101467.53;;;;-57
2020/11/07 09:31:16;;;;;;;3.57;3.27;;;;;;;19.83;56.52;101469.85;;;;-59
2020/11/07 09:34:16;;;;;;;4.46;3.17;;;;;;;19.87;56.86;101471.00;;;;-51
2020/11/07 09:37:16;;;;;;;3.81;3.23;;;;;;;19.89;56.53;101469.49;;;;-52
2020/11/07 09:40:16;;;;;;;4.73;3.33;;;;;;;19.94;56.52;101462.59;;;;-51
2020/11/07 09:43:16;;;;;;;7.18;3.19;;;;;;;19.97;56.20;101464.30;;;;-52
2020/11/07 09:46:16;;;;;;;4.35;3.09;;;;;;;19.99;56.25;101462.38;;;;-52
2020/11/07 09:49:16;;;;;;;3.32;3.02;;;;;;;20.00;56.12;101464.50;;;;-49
2020/11/07 09:52:16;;;;;;;4.15;3.10;;;;;;;20.03;56.06;101461.00;;;;-59
2020/11/07 09:55:16;;;;;;;4.43;2.98;;;;;;;20.04;56.06;101456.94;;;;-58
2020/11/07 09:58:16;;;;;;;4.33;3.05;;;;;;;20.05;56.13;101458.03;;;;-61
2020/11/07 10:01:16;;;;;;;3.85;3.17;;;;;;;20.07;55.92;101455.55;;;;-60
2020/11/07 10:04:16;;;;;;;5.90;3.15;;;;;;;20.08;55.91;101456.28;;;;-58
2020/11/07 10:07:16;;;;;;;3.34;3.04;;;;;;;20.11;56.02;101455.84;;;;-56
2020/11/07 10:10:16;;;;;;;4.59;3.32;;;;;;;20.13;55.94;101453.19;;;;-58
2020/11/07 10:13:16;;;;;;;3.42;3.12;;;;;;;20.14;55.82;101451.28;;;;-50
2020/11/07 10:16:16;;;;;;;4.44;3.00;;;;;;;20.15;55.77;101444.80;;;;-58
2020/11/07 10:19:16;;;;;;;3.33;3.03;;;;;;;20.18;55.81;101442.97;;;;-60
2020/11/07 10:22:16;;;;;;;4.89;3.16;;;;;;;20.19;55.81;101437.85;;;;-53
2020/11/07 10:25:16;;;;;;;3.48;3.14;;;;;;;20.21;55.96;101436.70;;;;-53
2020/11/07 10:28:16;;;;;;;3.62;3.06;;;;;;;20.23;55.83;101431.41;;;;-57
2020/11/07 10:31:16;;;;;;;4.24;3.03;;;;;;;20.24;55.95;101430.06;;;;-54
2020/11/07 10:34:16;;;;;;;3.26;2.96;;;;;;;20.24;55.86;101427.30;;;;-56
2020/11/07 10:37:16;;;;;;;10.27;5.56;;;;;;;20.05;52.18;101423.28;;;;-56
2020/11/07 10:40:16;;;;;;;9.35;6.89;;;;;;;19.83;50.05;101417.88;;;;-58
2020/11/07 10:43:16;;;;;;;9.63;5.67;;;;;;;19.89;51.81;101409.70;;;;-51
2020/11/07 10:46:16;;;;;;;8.39;5.25;;;;;;;19.96;53.01;101408.12;;;;-53
2020/11/07 10:49:16;;;;;;;6.23;4.39;;;;;;;20.02;53.43;101406.85;;;;-55
2020/11/07 10:52:16;;;;;;;5.78;4.20;;;;;;;20.06;53.66;101401.07;;;;-57
2020/11/07 10:55:17;;;;;;;4.43;3.99;;;;;;;20.10;53.94;101400.58;;;;-60
2020/11/07 10:58:16;;;;;;;5.09;3.77;;;;;;;20.14;54.04;101404.31;;;;-57
2020/11/07 11:01:16;;;;;;;4.38;3.59;;;;;;;20.16;54.25;101396.55;;;;-61
2020/11/07 11:04:16;;;;;;;3.95;3.30;;;;;;;20.19;54.32;101392.35;;;;-55
2020/11/07 11:07:16;;;;;;;3.70;3.18;;;;;;;20.21;54.43;101393.45;;;;-65
2020/11/07 11:10:16;;;;;;;4.91;3.39;;;;;;;20.24;54.64;101385.05;;;;-53
2020/11/07 11:13:16;;;;;;;4.25;3.21;;;;;;;20.26;54.67;101377.44;;;;-61
2020/11/07 11:16:16;;;;;;;4.87;3.27;;;;;;;20.27;54.72;101373.70;;;;-59
2020/11/07 11:19:16;;;;;;;4.08;3.23;;;;;;;20.28;54.77;101370.15;;;;-60
2020/11/07 11:22:16;;;;;;;4.27;3.32;;;;;;;20.29;54.71;101367.55;;;;-56
2020/11/07 11:25:16;;;;;;;4.45;2.99;;;;;;;20.32;54.36;101363.47;;;;-66
2020/11/07 11:28:16;;;;;;;13.72;3.37;;;;;;;20.32;54.23;101355.73;;;;-59
2020/11/07 11:31:16;;;;;;;4.85;2.91;;;;;;;20.32;54.20;101353.61;;;;-54
2020/11/07 11:34:16;;;;;;;10.69;3.01;;;;;;;20.31;54.40;101349.19;;;;-62
2020/11/07 11:37:16;;;;;;;4.11;3.05;;;;;;;20.32;53.46;101348.65;;;;-61
2020/11/07 11:40:16;;;;;;;4.64;3.03;;;;;;;20.31;53.40;101342.59;;;;-55
2020/11/07 11:43:16;;;;;;;6.81;3.11;;;;;;;20.30;53.39;101337.30;;;;-63
2020/11/07 11:46:16;;;;;;;4.32;3.06;;;;;;;20.33;53.37;101337.34;;;;-58
2020/11/07 11:49:16;;;;;;;3.53;2.76;;;;;;;20.34;53.63;101333.55;;;;-54
2020/11/07 11:52:16;;;;;;;5.00;3.04;;;;;;;20.34;53.74;101327.27;;;;-55
2020/11/07 11:55:16;;;;;;;4.22;3.24;;;;;;;20.34;53.80;101320.59;;;;-55
2020/11/07 11:58:16;;;;;;;3.20;2.90;;;;;;;20.35;53.90;101320.03;;;;-56
2020/11/07 12:01:20;;;;;;;3.54;2.89;;;;;;;20.35;53.90;101318.48;;;;-63
2020/11/07 12:04:16;;;;;;;4.53;2.77;;;;;;;20.36;54.00;101316.40;;;;-65
2020/11/07 12:07:16;;;;;;;3.81;2.95;;;;;;;20.37;53.95;101311.27;;;;-64
2020/11/07 12:10:16;;;;;;;3.07;2.77;;;;;;;20.37;54.01;101308.09;;;;-57
2020/11/07 12:13:16;;;;;;;3.55;2.57;;;;;;;20.37;54.05;101299.47;;;;-62
2020/11/07 12:16:16;;;;;;;5.41;2.98;;;;;;;20.38;54.12;101299.71;;;;-54
2020/11/07 12:19:16;;;;;;;3.57;2.81;;;;;;;20.38;54.04;101294.17;;;;-54
2020/11/07 12:22:16;;;;;;;4.29;2.79;;;;;;;20.36;53.67;101286.12;;;;-54
2020/11/07 12:25:16;;;;;;;3.85;2.60;;;;;;;20.36;53.55;101280.91;;;;-59
2020/11/07 12:28:16;;;;;;;3.62;2.81;;;;;;;20.38;53.55;101278.98;;;;-57
2020/11/07 12:31:16;;;;;;;3.50;2.69;;;;;;;20.38;53.27;101276.86;;;;-58
2020/11/07 12:34:16;;;;;;;3.39;2.50;;;;;;;20.38;53.19;101274.99;;;;-53
2020/11/07 12:37:16;;;;;;;2.85;2.65;;;;;;;20.39;53.32;101271.09;;;;-45
2020/11/07 12:40:16;;;;;;;2.99;2.71;;;;;;;20.40;53.39;101265.98;;;;-48
2020/11/07 12:43:16;;;;;;;3.21;2.91;;;;;;;20.42;53.17;101260.64;;;;-54
2020/11/07 12:46:16;;;;;;;3.21;2.91;;;;;;;20.43;53.21;101252.75;;;;-54
2020/11/07 12:49:16;;;;;;;3.28;2.69;;;;;;;20.44;53.50;101253.19;;;;-54
2020/11/07 12:52:16;;;;;;;2.91;2.71;;;;;;;20.45;53.53;101245.62;;;;-55
2020/11/07 12:55:16;;;;;;;2.75;2.55;;;;;;;20.46;53.66;101248.30;;;;-54
2020/11/07 12:58:16;;;;;;;4.35;2.81;;;;;;;20.46;53.70;101246.87;;;;-54
2020/11/07 13:01:16;;;;;;;3.59;2.61;;;;;;;20.46;53.70;101244.59;;;;-53
2020/11/07 13:04:16;;;;;;;3.33;2.70;;;;;;;20.47;53.78;101246.05;;;;-54
2020/11/07 13:07:16;;;;;;;2.90;2.60;;;;;;;20.47;53.74;101237.83;;;;-55
2020/11/07 13:10:16;;;;;;;2.63;2.43;;;;;;;20.47;53.80;101238.97;;;;-55
2020/11/07 13:13:16;;;;;;;3.47;2.66;;;;;;;20.47;53.86;101235.38;;;;-55
2020/11/07 13:16:16;;;;;;;3.04;2.59;;;;;;;20.47;53.87;101233.19;;;;-54
2020/11/07 13:19:16;;;;;;;3.03;2.60;;;;;;;20.47;53.97;101231.16;;;;-54
2020/11/07 13:22:26;;;;;;;2.78;2.44;;;;;;;20.47;53.93;101229.03;;;;-59
2020/11/07 13:25:19;;;;;;;2.57;2.36;;;;;;;20.47;53.94;101228.38;;;;-59
2020/11/07 13:28:16;;;;;;;3.00;2.64;;;;;;;20.47;53.96;101225.78;;;;-58
2020/11/07 13:31:16;;;;;;;3.64;2.67;;;;;;;20.48;54.08;101231.40;;;;-59
2020/11/07 13:34:18;;;;;;;2.71;2.51;;;;;;;20.48;54.03;101233.03;;;;-59
2020/11/07 13:37:16;;;;;;;2.85;2.55;;;;;;;20.48;54.09;101227.08;;;;-57
2020/11/07 13:40:16;;;;;;;3.39;2.69;;;;;;;20.47;54.04;101220.24;;;;-58
2020/11/07 13:43:16;;;;;;;7.83;2.65;;;;;;;20.48;54.24;101216.98;;;;-59
2020/11/07 13:46:16;;;;;;;4.06;3.20;;;;;;;20.48;53.65;101217.83;;;;-60
2020/11/07 13:49:16;;;;;;;13.97;3.56;;;;;;;20.50;53.87;101213.55;;;;-58
2020/11/07 13:52:16;;;;;;;9.66;3.33;;;;;;;20.53;54.13;101209.26;;;;-58
2020/11/07 13:55:16;;;;;;;8.37;3.51;;;;;;;20.54;53.88;101205.67;;;;-58
2020/11/07 13:58:16;;;;;;;7.32;3.47;;;;;;;20.58;54.47;101205.41;;;;-54
2020/11/07 14:01:16;;;;;;;8.90;4.10;;;;;;;20.58;54.03;101197.26;;;;-57
2020/11/07 14:04:16;;;;;;;7.60;3.72;;;;;;;20.59;54.22;101196.34;;;;-57
2020/11/07 14:07:16;;;;;;;5.38;3.53;;;;;;;20.59;54.29;101198.22;;;;-53
2020/11/07 14:10:16;;;;;;;8.57;3.63;;;;;;;20.60;54.38;101210.34;;;;-58
2020/11/07 14:13:15;;;;;;;5.95;3.57;;;;;;;20.61;54.42;101215.42;;;;-58
2020/11/07 14:16:16;;;;;;;7.85;3.53;;;;;;;20.62;54.34;101218.77;;;;-56
2020/11/07 14:19:16;;;;;;;5.75;3.30;;;;;;;20.62;54.49;101230.08;;;;-58
2020/11/07 14:22:16;;;;;;;5.39;3.43;;;;;;;20.63;54.48;101228.48;;;;-56
2020/11/07 14:25:16;;;;;;;5.83;3.55;;;;;;;20.64;54.57;101218.71;;;;-58
2020/11/07 14:28:16;;;;;;;9.79;3.33;;;;;;;20.64;54.95;101216.27;;;;-63
2020/11/07 14:31:16;;;;;;;10.50;3.87;;;;;;;20.63;54.42;101217.30;;;;-55
2020/11/07 14:34:16;;;;;;;6.54;3.89;;;;;;;20.62;54.07;101216.23;;;;-57
2020/11/07 14:37:16;;;;;;;8.48;4.61;;;;;;;20.63;54.26;101215.18;;;;-58
2020/11/07 14:40:16;;;;;;;15.02;4.29;;;;;;;20.63;54.04;101211.47;;;;-57
2020/11/07 14:43:16;;;;;;;10.08;4.11;;;;;;;20.65;54.31;101208.64;;;;-58
2020/11/07 14:46:16;;;;;;;10.16;4.32;;;;;;;20.67;54.56;101200.77;;;;-53
2020/11/07 14:49:16;;;;;;;7.78;4.01;;;;;;;20.69;54.68;101196.48;;;;-63
2020/11/07 14:52:16;;;;;;;14.66;4.57;;;;;;;20.71;54.46;101192.97;;;;-61
2020/11/07 14:55:16;;;;;;;11.17;4.39;;;;;;;20.71;54.51;101198.22;;;;-58
2020/11/07 14:58:16;;;;;;;10.41;4.05;;;;;;;20.72;54.49;101202.13;;;;-57
2020/11/07 15:01:16;;;;;;;9.68;3.89;;;;;;;20.72;54.56;101197.41;;;;-61
2020/11/07 15:04:16;;;;;;;10.40;4.05;;;;;;;20.72;54.68;101192.11;;;;-54
2020/11/07 15:07:16;;;;;;;7.50;3.93;;;;;;;20.73;54.63;101185.78;;;;-58
2020/11/07 15:10:16;;;;;;;8.99;3.95;;;;;;;20.72;54.64;101184.70;;;;-50
2020/11/07 15:13:16;;;;;;;8.19;4.23;;;;;;;20.73;54.64;101185.10;;;;-51
2020/11/07 15:16:16;;;;;;;5.59;3.61;;;;;;;20.73;54.64;101180.62;;;;-50
2020/11/07 15:19:16;;;;;;;6.32;3.81;;;;;;;20.73;54.70;101194.17;;;;-61
2020/11/07 15:22:16;;;;;;;7.66;3.58;;;;;;;20.73;54.63;101202.40;;;;-50
2020/11/07 15:25:17;;;;;;;8.63;3.56;;;;;;;20.73;54.67;101195.45;;;;-62
2020/11/07 15:28:16;;;;;;;5.48;3.68;;;;;;;20.73;54.69;101195.45;;;;-49
2020/11/07 15:31:16;;;;;;;5.38;3.43;;;;;;;20.73;54.76;101199.22;;;;-50
2020/11/07 15:34:16;;;;;;;13.55;3.86;;;;;;;20.74;54.61;101198.73;;;;-51
2020/11/07 15:37:16;;;;;;;7.95;3.56;;;;;;;20.72;54.56;101196.42;;;;-52
2020/11/07 15:40:16;;;;;;;6.09;3.80;;;;;;;20.72;54.49;101197.97;;;;-51
2020/11/07 15:43:16;;;;;;;5.55;3.42;;;;;;;20.71;54.49;101201.97;;;;-51
2020/11/07 15:46:19;;;;;;;14.20;3.73;;;;;;;20.68;54.62;101200.28;;;;-48
2020/11/07 15:49:16;;;;;;;13.80;4.13;;;;;;;20.71;54.61;101202.59;;;;-46
2020/11/07 15:52:16;;;;;;;11.39;3.92;;;;;;;20.73;54.57;101202.70;;;;-47
2020/11/07 15:55:16;;;;;;;7.87;3.43;;;;;;;20.73;54.74;101198.86;;;;-53
2020/11/07 15:58:16;;;;;;;6.95;3.35;;;;;;;20.74;54.84;101200.36;;;;-53
2020/11/07 16:01:16;;;;;;;7.25;3.48;;;;;;;20.75;54.91;101199.63;;;;-55
2020/11/07 16:04:16;;;;;;;8.34;3.55;;;;;;;20.75;54.96;101198.03;;;;-61
2020/11/07 16:07:16;;;;;;;6.80;3.68;;;;;;;20.76;54.91;101200.88;;;;-53
2020/11/07 16:10:16;;;;;;;9.07;3.77;;;;;;;20.77;54.56;101203.40;;;;-59
2020/11/07 16:13:16;;;;;;;5.66;3.58;;;;;;;20.78;54.44;101208.97;;;;-46
2020/11/07 16:16:16;;;;;;;7.82;3.75;;;;;;;20.78;54.66;101204.08;;;;-48
2020/11/07 16:19:16;;;;;;;6.21;3.31;;;;;;;20.79;54.73;101202.77;;;;-63
2020/11/07 16:22:16;;;;;;;5.85;3.26;;;;;;;20.81;54.81;101206.55;;;;-55
2020/11/07 16:25:16;;;;;;;7.46;3.22;;;;;;;20.80;54.87;101203.95;;;;-58
2020/11/07 16:28:16;;;;;;;7.63;3.67;;;;;;;20.79;54.39;101203.83;;;;-59
2020/11/07 16:31:16;;;;;;;8.27;3.83;;;;;;;20.77;53.49;101202.26;;;;-59
2020/11/07 16:34:16;;;;;;;5.81;3.79;;;;;;;20.75;53.35;101208.17;;;;-60
2020/11/07 16:37:16;;;;;;;6.18;4.02;;;;;;;20.73;53.27;101207.94;;;;-53
2020/11/07 16:40:16;;;;;;;8.17;3.67;;;;;;;20.73;53.01;101210.52;;;;-50